Time;durP1;ratioP1;P1;durP2;ratioP2;P2;SDS_P1;SDS_P2;PMS_P1;PMS_P2;Temp;Humidity;BMP_temperature;BMP_pressure;BME280_temperature;BME280_humidity;BME280_pressure;Samples;Min_cycle;Max_cycle;Signal;HPM_P1;HPM_P2
2022/09/13 00:01:21;;;;;;;4.45;3.50;;;21.50;71.30;;;;;;5044995;28;20029;-74
2022/09/13 00:03:48;;;;;;;3.67;3.38;;;21.50;71.40;;;;;;5042484;28;20044;-74
2022/09/13 00:06:18;;;;;;;5.00;3.28;;;21.50;71.40;;;;;;5046390;28;20029;-74
2022/09/13 00:08:45;;;;;;;7.47;3.55;;;21.50;71.50;;;;;;5044161;28;20041;-74
2022/09/13 00:11:24;;;;;;;3.65;3.22;;;21.50;71.50;;;;;;5050228;28;20078;-74
2022/09/13 00:13:51;;;;;;;4.70;3.15;;;21.40;71.40;;;;;;5046760;28;20049;-74
2022/09/13 00:16:20;;;;;;;6.55;2.83;;;21.50;71.50;;;;;;5046706;28;20044;-74
2022/09/13 00:18:46;;;;;;;6.13;4.03;;;21.50;71.60;;;;;;5044605;28;20045;-75
2022/09/13 00:21:15;;;;;;;4.65;2.95;;;21.40;71.50;;;;;;5046542;28;20484;-74
2022/09/13 00:23:46;;;;;;;4.63;3.67;;;21.40;71.50;;;;;;5048036;28;20028;-75
2022/09/13 00:26:16;;;;;;;3.40;3.10;;;21.40;71.60;;;;;;5049830;28;20025;-75
2022/09/13 00:28:44;;;;;;;3.22;2.83;;;21.40;71.60;;;;;;5047014;28;20041;-74
2022/09/13 00:31:10;;;;;;;3.28;2.72;;;21.40;71.70;;;;;;5048526;28;20037;-73
2022/09/13 00:33:37;;;;;;;3.92;2.67;;;21.30;71.60;;;;;;5048824;28;20025;-74
2022/09/13 00:36:09;;;;;;;2.92;2.72;;;21.30;71.70;;;;;;5046608;28;20120;-74
2022/09/13 00:38:36;;;;;;;4.03;2.90;;;21.30;71.80;;;;;;5045719;28;20035;-74
2022/09/13 00:41:09;;;;;;;6.13;3.33;;;21.30;71.80;;;;;;5050102;28;20040;-74
2022/09/13 00:43:47;;;;;;;3.53;3.20;;;21.30;71.90;;;;;;5039076;28;20033;-74
2022/09/13 00:46:35;;;;;;;4.85;2.63;;;21.30;72.00;;;;;;5047358;28;20032;-74
2022/09/13 00:49:13;;;;;;;4.45;3.15;;;21.30;72.00;;;;;;5042935;28;20265;-74
2022/09/13 00:51:44;;;;;;;4.25;3.60;;;21.20;71.80;;;;;;5046131;28;20025;-73
2022/09/13 00:54:11;;;;;;;2.90;2.55;;;21.20;71.90;;;;;;5047449;28;20058;-73
2022/09/13 00:56:46;;;;;;;3.50;3.22;;;21.20;71.90;;;;;;5056125;28;20536;-73
2022/09/13 00:59:24;;;;;;;5.07;4.22;;;21.20;72.00;;;;;;5048595;28;20037;-76
2022/09/13 01:01:54;;;;;;;4.35;3.95;;;21.10;71.90;;;;;;5026417;28;20042;-73
2022/09/13 01:04:24;;;;;;;5.47;4.15;;;21.10;72.00;;;;;;5048183;28;20032;-73
2022/09/13 01:06:53;;;;;;;3.95;3.65;;;21.10;72.10;;;;;;5056845;28;20665;-75
2022/09/13 01:09:20;;;;;;;4.50;3.80;;;21.00;71.90;;;;;;5040382;28;20043;-75
2022/09/13 01:11:59;;;;;;;4.97;4.05;;;21.00;72.00;;;;;;5044442;28;20522;-74
2022/09/13 01:14:26;;;;;;;5.85;4.10;;;21.00;72.20;;;;;;5043184;28;20139;-74
2022/09/13 01:16:53;;;;;;;5.50;4.43;;;20.90;72.00;;;;;;5043796;28;20029;-75
2022/09/13 01:19:19;;;;;;;5.22;4.70;;;20.90;72.10;;;;;;5056118;28;20083;-75
2022/09/13 01:22:00;;;;;;;4.82;4.43;;;20.90;72.20;;;;;;5049070;28;20024;-74
2022/09/13 01:25:06;;;;;;;5.35;4.80;;;20.80;72.10;;;;;;5040175;28;20284;-74
2022/09/13 01:27:52;;;;;;;5.40;4.95;;;20.80;72.30;;;;;;5038997;28;20037;-74
2022/09/13 01:30:20;;;;;;;6.32;5.47;;;20.80;72.30;;;;;;5026369;28;20048;-74
2022/09/13 01:32:56;;;;;;;5.72;5.22;;;20.70;72.10;;;;;;5041255;28;20383;-75
2022/09/13 01:35:47;;;;;;;7.22;6.55;;;20.70;72.20;;;;;;5034673;28;20081;-74
2022/09/13 01:38:33;;;;;;;6.72;6.13;;;20.70;72.30;;;;;;5029389;28;20033;-73
2022/09/13 01:41:18;;;;;;;6.82;6.13;;;20.70;72.40;;;;;;5048250;28;20361;-75
2022/09/13 01:44:17;;;;;;;9.15;6.80;;;20.60;72.30;;;;;;5037735;28;20062;-74
2022/09/13 01:47:06;;;;;;;8.18;7.38;;;20.60;72.40;;;;;;5043175;28;20037;-73
2022/09/13 01:49:46;;;;;;;8.15;7.35;;;20.60;72.50;;;;;;5049074;28;20057;-74
2022/09/13 01:52:12;;;;;;;8.60;7.82;;;20.60;72.50;;;;;;5045317;28;20060;-74
2022/09/13 01:54:52;;;;;;;9.02;8.18;;;20.50;72.30;;;;;;5052917;28;20464;-76
2022/09/13 01:57:32;;;;;;;9.52;8.63;;;20.50;72.40;;;;;;5032436;28;20554;-74
2022/09/13 02:00:13;;;;;;;9.38;8.57;;;20.40;72.40;;;;;;5041265;28;20021;-74
2022/09/13 02:02:52;;;;;;;14.25;9.52;;;20.40;72.40;;;;;;5057025;28;20123;-74
2022/09/13 02:05:44;;;;;;;11.25;8.65;;;20.40;72.40;;;;;;5051057;28;20217;-74
2022/09/13 02:08:22;;;;;;;10.25;9.32;;;20.30;72.30;;;;;;5038908;28;20499;-75
2022/09/13 02:10:53;;;;;;;12.68;10.65;;;20.30;72.30;;;;;;5052173;28;20156;-73
2022/09/13 02:13:26;;;;;;;11.27;10.18;;;20.30;72.30;;;;;;5058328;28;20045;-73
2022/09/13 02:15:56;;;;;;;;;;;20.20;72.30;;;;;;5050169;28;20032;-73
2022/09/13 02:18:34;;;;;;;12.05;10.70;;;20.20;72.20;;;;;;5051946;28;19919;-74
2022/09/13 02:21:11;;;;;;;11.60;10.50;;;20.10;72.00;;;;;;5031613;28;20025;-75
2022/09/13 02:23:47;;;;;;;10.63;9.63;;;20.10;72.10;;;;;;5057255;28;20037;-74
2022/09/13 02:26:14;;;;;;;11.50;10.30;;;20.10;72.10;;;;;;5063488;28;20032;-73
2022/09/13 02:28:46;;;;;;;12.07;10.88;;;20.10;72.20;;;;;;5047105;28;20110;-75
2022/09/13 02:31:18;;;;;;;12.23;10.60;;;20.00;72.10;;;;;;5049193;28;20036;-75
2022/09/13 02:33:56;;;;;;;12.57;11.35;;;20.00;72.10;;;;;;5032438;28;20377;-73
2022/09/13 02:36:27;;;;;;;11.55;10.45;;;20.00;72.20;;;;;;5033575;28;20416;-74
2022/09/13 02:38:59;;;;;;;11.35;10.35;;;20.00;72.20;;;;;;5040195;28;20091;-74
2022/09/13 02:41:38;;;;;;;11.45;10.35;;;19.90;72.00;;;;;;5051357;28;20452;-74
2022/09/13 02:44:22;;;;;;;11.05;9.98;;;19.90;72.00;;;;;;5039639;28;20044;-74
2022/09/13 02:47:02;;;;;;;11.75;10.57;;;19.90;72.00;;;;;;5065610;28;20025;-74
2022/09/13 02:49:50;;;;;;;12.95;11.65;;;19.90;72.00;;;;;;5041336;28;20044;-74
2022/09/13 02:52:33;;;;;;;11.77;10.68;;;19.90;71.90;;;;;;5053078;28;20083;-74
2022/09/13 02:55:28;;;;;;;12.10;10.80;;;19.80;71.80;;;;;;5052629;28;20021;-74
2022/09/13 02:58:17;;;;;;;12.00;10.40;;;19.80;71.80;;;;;;5036263;28;20068;-74
2022/09/13 03:00:43;;;;;;;10.25;8.95;;;19.80;71.70;;;;;;5043962;28;20033;-74
2022/09/13 03:03:13;;;;;;;17.58;10.27;;;19.80;71.80;;;;;;5062314;28;20041;-74
2022/09/13 03:05:40;;;;;;;9.95;9.05;;;19.70;71.50;;;;;;5051717;28;20037;-76
2022/09/13 03:08:11;;;;;;;10.02;8.32;;;19.70;71.50;;;;;;5053451;28;20044;-73
2022/09/13 03:10:51;;;;;;;10.13;9.10;;;19.70;71.50;;;;;;5053528;28;20045;-73
2022/09/13 03:13:26;;;;;;;9.38;8.48;;;19.60;71.30;;;;;;5046959;28;20054;-73
2022/09/13 03:15:53;;;;;;;8.88;8.00;;;19.60;71.30;;;;;;5053489;28;20040;-74
2022/09/13 03:18:54;;;;;;;9.13;8.23;;;19.50;71.10;;;;;;5052846;28;20041;-73
2022/09/13 03:21:39;;;;;;;8.70;7.90;;;19.50;71.10;;;;;;5045929;28;20021;-74
2022/09/13 03:24:14;;;;;;;10.88;7.57;;;19.50;71.10;;;;;;5044170;28;20029;-74
2022/09/13 03:26:52;;;;;;;8.40;7.50;;;19.50;71.00;;;;;;5051641;28;20040;-73
2022/09/13 03:29:30;;;;;;;8.50;7.28;;;19.40;70.90;;;;;;5049031;28;20108;-73
2022/09/13 03:32:22;;;;;;;7.60;6.80;;;19.40;70.90;;;;;;5054626;28;20036;-73
2022/09/13 03:35:06;;;;;;;8.43;7.57;;;19.40;70.80;;;;;;5065277;28;20029;-74
2022/09/13 03:37:45;;;;;;;8.30;6.70;;;19.30;70.70;;;;;;5052801;28;20075;-72
2022/09/13 03:40:27;;;;;;;8.23;7.00;;;19.30;70.70;;;;;;5052462;28;20024;-73
2022/09/13 03:43:12;;;;;;;7.93;7.03;;;19.30;71.20;;;;;;5063688;28;20411;-73
2022/09/13 03:45:48;;;;;;;7.40;6.28;;;19.30;70.60;;;;;;5042985;28;20041;-73
2022/09/13 03:48:15;;;;;;;10.02;7.13;;;19.30;70.60;;;;;;5050879;28;20133;-74
2022/09/13 03:50:44;;;;;;;6.78;6.05;;;19.30;70.60;;;;;;5050372;28;20430;-74
2022/09/13 03:53:13;;;;;;;7.68;6.85;;;19.30;70.60;;;;;;5053863;28;20029;-74
2022/09/13 03:55:42;;;;;;;6.90;5.72;;;19.30;70.50;;;;;;5051264;28;20025;-74
2022/09/13 03:58:12;;;;;;;6.30;5.65;;;19.20;70.30;;;;;;5059885;28;20106;-74
2022/09/13 04:00:39;;;;;;;7.78;5.55;;;19.20;70.30;;;;;;5048440;28;20143;-76
2022/09/13 04:03:06;;;;;;;5.60;4.78;;;19.20;70.30;;;;;;5061516;28;20040;-75
2022/09/13 04:05:35;;;;;;;7.68;6.30;;;19.20;70.30;;;;;;5050829;28;20067;-74
2022/09/13 04:08:04;;;;;;;7.05;4.90;;;19.20;70.30;;;;;;5053036;28;20045;-73
2022/09/13 04:10:31;;;;;;;7.00;4.53;;;19.10;70.10;;;;;;5051755;28;20048;-74
2022/09/13 04:12:59;;;;;;;6.05;4.80;;;19.10;70.00;;;;;;5051386;28;20025;-74
2022/09/13 04:15:26;;;;;;;8.05;4.38;;;19.10;70.10;;;;;;5052822;28;20045;-74
2022/09/13 04:17:52;;;;;;;7.00;4.80;;;19.00;69.90;;;;;;5036191;28;20061;-73
2022/09/13 04:20:19;;;;;;;6.82;4.00;;;19.00;69.90;;;;;;5065638;28;20043;-74
2022/09/13 04:22:52;;;;;;;7.15;4.53;;;19.00;69.90;;;;;;5070474;28;20368;-73
2022/09/13 04:25:20;;;;;;;4.65;3.63;;;19.00;69.90;;;;;;5052410;28;20031;-73
2022/09/13 04:27:52;;;;;;;5.32;3.38;;;18.90;69.70;;;;;;5027558;28;20082;-73
2022/09/13 04:30:18;;;;;;;5.43;3.92;;;18.90;70.20;;;;;;5055111;28;20023;-75
2022/09/13 04:32:44;;;;;;;3.17;2.58;;;18.80;69.50;;;;;;5056806;28;20060;-74
2022/09/13 04:35:11;;;;;;;5.18;3.00;;;18.80;69.50;;;;;;5053558;28;20378;-74
2022/09/13 04:37:38;;;;;;;4.43;2.95;;;18.80;69.50;;;;;;5053312;28;20036;-73
2022/09/13 04:40:07;;;;;;;5.70;3.75;;;18.80;69.40;;;;;;5051765;28;20033;-75
2022/09/13 04:42:34;;;;;;;6.43;3.00;;;18.70;69.30;;;;;;5043631;28;20036;-73
2022/09/13 04:45:00;;;;;;;4.53;3.03;;;18.70;69.20;;;;;;5048392;28;20478;-74
2022/09/13 04:47:26;;;;;;;2.88;2.13;;;18.70;69.20;;;;;;5058432;28;20045;-74
2022/09/13 04:49:52;;;;;;;5.00;2.75;;;18.70;69.20;;;;;;5046063;28;20090;-75
2022/09/13 04:52:18;;;;;;;3.75;2.90;;;18.60;68.90;;;;;;5038017;28;20104;-74
2022/09/13 04:54:46;;;;;;;4.95;2.45;;;18.70;69.10;;;;;;5047575;28;20396;-74
2022/09/13 04:57:15;;;;;;;4.70;2.22;;;18.70;69.10;;;;;;5023327;28;20133;-75
2022/09/13 04:59:42;;;;;;;7.20;3.08;;;18.60;68.90;;;;;;5058063;28;20032;-74
2022/09/13 05:02:08;;;;;;;5.00;1.98;;;18.60;68.90;;;;;;5055886;28;20394;-74
2022/09/13 05:04:34;;;;;;;4.57;2.40;;;18.50;68.70;;;;;;5052107;28;20550;-74
2022/09/13 05:07:00;;;;;;;4.72;1.88;;;18.60;69.10;;;;;;5032645;28;20187;-74
2022/09/13 05:09:26;;;;;;;4.13;2.20;;;18.60;68.80;;;;;;5048578;28;20048;-74
2022/09/13 05:11:53;;;;;;;3.53;1.90;;;18.50;68.60;;;;;;5055665;28;20029;-74
2022/09/13 05:14:21;;;;;;;4.00;2.17;;;18.50;68.60;;;;;;5044857;28;20506;-74
2022/09/13 05:16:47;;;;;;;4.03;2.22;;;18.50;68.50;;;;;;5042195;28;20495;-74
2022/09/13 05:19:12;;;;;;;5.35;2.70;;;18.50;68.50;;;;;;5010625;28;20033;-73
2022/09/13 05:21:38;;;;;;;3.40;1.75;;;18.40;68.30;;;;;;5050036;28;20040;-74
2022/09/13 05:24:04;;;;;;;3.13;1.50;;;18.40;68.30;;;;;;5050775;28;20058;-74
2022/09/13 05:26:30;;;;;;;5.63;2.35;;;18.40;68.20;;;;;;5051036;28;20537;-73
2022/09/13 05:28:58;;;;;;;9.23;2.92;;;18.40;68.20;;;;;;5058946;28;20044;-73
2022/09/13 05:31:44;;;;;;;4.30;1.45;;;18.40;68.20;;;;;;5052483;28;20013;-74
2022/09/13 05:34:16;;;;;;;3.47;1.38;;;18.30;68.00;;;;;;5040423;28;20500;-74
2022/09/13 05:36:43;;;;;;;4.13;2.13;;;18.40;68.10;;;;;;5044494;28;20111;-75
2022/09/13 05:39:14;;;;;;;6.63;2.60;;;18.30;67.90;;;;;;5042169;28;20451;-75
2022/09/13 05:41:40;;;;;;;4.03;1.38;;;18.30;67.80;;;;;;5057925;28;20037;-78
2022/09/13 05:44:07;;;;;;;6.10;2.17;;;18.30;67.70;;;;;;5045469;28;20061;-75
2022/09/13 05:46:33;;;;;;;4.30;1.50;;;18.30;67.60;;;;;;5062376;28;20052;-75
2022/09/13 05:48:59;;;;;;;4.28;1.42;;;18.30;67.60;;;;;;5024007;28;20288;-79
2022/09/13 05:51:26;;;;;;;4.63;1.38;;;18.30;67.50;;;;;;5040511;28;20040;-73
2022/09/13 05:53:53;;;;;;;3.88;1.48;;;18.30;67.50;;;;;;5047566;28;20544;-74
2022/09/13 05:56:27;;;;;;;4.65;1.92;;;18.20;67.20;;;;;;5054949;28;20051;-74
2022/09/13 05:58:54;;;;;;;3.70;1.60;;;18.30;67.30;;;;;;5053655;28;20036;-73
2022/09/13 06:01:22;;;;;;;7.13;2.10;;;18.30;67.20;;;;;;5050442;28;20016;-74
2022/09/13 06:03:52;;;;;;;4.45;1.80;;;18.30;67.20;;;;;;5063530;28;20036;-75
2022/09/13 06:06:19;;;;;;;10.55;2.25;;;18.30;67.10;;;;;;5062317;28;20080;-75
2022/09/13 06:08:45;;;;;;;5.40;2.72;;;18.20;67.30;;;;;;5050918;28;20527;-76
2022/09/13 06:11:13;;;;;;;5.28;3.67;;;18.30;68.40;;;;;;5048465;28;20078;-76
2022/09/13 06:13:41;;;;;;;6.88;3.28;;;18.30;69.10;;;;;;5030190;28;20037;-76
2022/09/13 06:16:09;;;;;;;7.05;2.85;;;18.40;69.70;;;;;;5059518;28;20029;-75
2022/09/13 06:18:36;;;;;;;7.15;2.72;;;18.50;70.40;;;;;;5043154;28;20105;-75
2022/09/13 06:21:16;;;;;;;4.68;2.47;;;18.50;70.70;;;;;;5047546;28;20485;-75
2022/09/13 06:23:46;;;;;;;8.70;2.17;;;18.60;71.10;;;;;;5049848;28;20493;-77
2022/09/13 06:26:15;;;;;;;6.38;2.55;;;18.60;70.70;;;;;;5048317;28;20628;-75
2022/09/13 06:28:41;;;;;;;6.97;2.35;;;18.60;70.40;;;;;;5042769;28;20045;-75
2022/09/13 06:31:10;;;;;;;5.57;1.92;;;18.60;70.10;;;;;;5028423;28;20029;-74
2022/09/13 06:33:38;;;;;;;6.55;1.98;;;18.60;69.80;;;;;;5048034;28;20399;-74
2022/09/13 06:36:07;;;;;;;3.35;1.73;;;18.50;69.40;;;;;;5029359;28;20037;-75
2022/09/13 06:38:33;;;;;;;9.95;2.80;;;18.50;69.20;;;;;;5041463;28;20045;-76
2022/09/13 06:41:10;;;;;;;7.53;2.20;;;18.50;69.10;;;;;;5058909;28;20077;-73
2022/09/13 06:43:37;;;;;;;6.15;1.90;;;18.50;69.00;;;;;;5052087;28;20024;-74
2022/09/13 06:46:09;;;;;;;9.18;2.17;;;18.40;68.70;;;;;;5063293;28;20564;-74
2022/09/13 06:48:37;;;;;;;6.38;1.75;;;18.40;68.50;;;;;;5062234;28;20484;-76
2022/09/13 06:51:14;;;;;;;6.38;2.30;;;18.40;68.30;;;;;;5054376;28;20033;-74
2022/09/13 06:53:44;;;;;;;5.95;1.90;;;18.40;68.10;;;;;;5069698;28;20024;-75
2022/09/13 06:56:11;;;;;;;5.18;1.83;;;18.40;68.00;;;;;;5051840;28;20037;-74
2022/09/13 06:58:40;;;;;;;5.45;1.40;;;18.30;67.60;;;;;;5054477;28;20443;-74
2022/09/13 07:01:18;;;;;;;5.75;2.47;;;18.30;67.60;;;;;;5051029;28;20058;-76
2022/09/13 07:03:48;;;;;;;4.47;1.70;;;18.30;67.60;;;;;;5053644;28;20029;-74
2022/09/13 07:06:16;;;;;;;4.85;2.13;;;18.30;67.60;;;;;;5045317;28;20092;-74
2022/09/13 07:08:44;;;;;;;6.97;2.47;;;18.30;67.60;;;;;;5049285;28;20037;-75
2022/09/13 07:11:11;;;;;;;6.78;1.77;;;18.40;67.60;;;;;;5028899;28;20037;-75
2022/09/13 07:13:39;;;;;;;8.93;2.35;;;18.30;67.20;;;;;;5038198;28;20579;-73
2022/09/13 07:16:09;;;;;;;6.15;2.15;;;18.40;67.20;;;;;;5049551;28;20031;-73
2022/09/13 07:18:35;;;;;;;6.10;1.30;;;18.30;66.90;;;;;;5046712;28;20484;-73
2022/09/13 07:21:12;;;;;;;5.53;1.67;;;18.30;66.70;;;;;;5031910;28;20037;-74
2022/09/13 07:23:39;;;;;;;4.40;1.85;;;18.40;66.70;;;;;;5031167;28;20022;-75
2022/09/13 07:26:06;;;;;;;5.63;1.85;;;18.40;66.70;;;;;;5049913;28;20032;-75
2022/09/13 07:28:37;;;;;;;4.00;0.80;;;18.40;66.60;;;;;;5050688;28;20485;-76
2022/09/13 07:31:13;;;;;;;5.60;1.55;;;18.40;66.30;;;;;;5048843;28;20488;-75
2022/09/13 07:33:41;;;;;;;8.02;1.58;;;18.40;66.40;;;;;;5047848;28;20070;-75
2022/09/13 07:36:10;;;;;;;3.90;1.40;;;18.50;66.60;;;;;;5046213;28;20029;-74
2022/09/13 07:38:38;;;;;;;3.30;1.20;;;18.50;66.60;;;;;;5046703;28;20033;-75
2022/09/13 07:41:07;;;;;;;3.95;1.17;;;18.60;66.90;;;;;;5048064;28;20047;-76
2022/09/13 07:43:35;;;;;;;5.55;1.90;;;18.70;67.10;;;;;;5048481;28;20028;-74
2022/09/13 07:46:06;;;;;;;6.38;1.38;;;18.80;67.30;;;;;;5044260;28;20029;-74
2022/09/13 07:48:35;;;;;;;4.50;1.80;;;18.90;67.30;;;;;;5044331;28;20045;-74
2022/09/13 07:51:07;;;;;;;3.13;1.55;;;19.00;67.20;;;;;;5057304;28;20028;-75
2022/09/13 07:53:34;;;;;;;4.72;2.00;;;19.00;66.80;;;;;;5049866;28;20027;-75
2022/09/13 07:56:04;;;;;;;4.05;1.17;;;19.00;66.60;;;;;;5058917;28;20408;-76
2022/09/13 07:58:32;;;;;;;5.05;1.40;;;19.10;66.40;;;;;;5039048;28;20033;-77
2022/09/13 08:01:19;;;;;;;3.30;1.00;;;19.10;66.30;;;;;;5058084;28;20024;-77
2022/09/13 08:03:54;;;;;;;4.03;0.82;;;19.20;66.20;;;;;;5048997;28;20031;-75
2022/09/13 08:06:21;;;;;;;3.60;1.55;;;19.20;66.00;;;;;;5046860;28;20096;-75
2022/09/13 08:08:47;;;;;;;4.30;1.10;;;19.20;65.80;;;;;;5030281;28;20372;-74
2022/09/13 08:11:18;;;;;;;4.38;1.38;;;19.20;65.50;;;;;;5048179;28;20191;-73
2022/09/13 08:13:47;;;;;;;2.65;1.23;;;19.20;65.30;;;;;;5039034;28;20468;-74
2022/09/13 08:16:14;;;;;;;3.88;1.00;;;19.20;65.10;;;;;;5055139;28;20040;-74
2022/09/13 08:18:44;;;;;;;4.43;1.25;;;19.30;65.20;;;;;;5048536;28;20036;-74
2022/09/13 08:21:10;;;;;;;2.88;0.80;;;19.30;65.00;;;;;;5048909;28;20107;-74
2022/09/13 08:23:36;;;;;;;7.78;1.33;;;19.30;64.90;;;;;;5048216;28;20032;-74
2022/09/13 08:26:02;;;;;;;2.17;0.90;;;19.40;64.90;;;;;;5048139;28;20059;-74
2022/09/13 08:28:31;;;;;;;2.55;1.13;;;19.40;64.70;;;;;;5054952;28;20055;-75
2022/09/13 08:31:03;;;;;;;3.80;1.10;;;19.40;64.60;;;;;;5048536;28;20492;-74
2022/09/13 08:33:29;;;;;;;11.05;2.25;;;19.50;64.50;;;;;;5051931;28;20040;-75
2022/09/13 08:35:57;;;;;;;2.72;0.98;;;19.50;64.30;;;;;;5050868;28;20118;-74
2022/09/13 08:38:24;;;;;;;3.85;1.20;;;19.50;64.10;;;;;;5038381;28;20029;-76
2022/09/13 08:40:54;;;;;;;5.45;1.77;;;19.60;64.10;;;;;;5052418;28;20029;-75
2022/09/13 08:43:42;;;;;;;3.55;1.17;;;19.60;63.90;;;;;;5056127;28;20028;-74
2022/09/13 08:46:28;;;;;;;3.83;0.93;;;19.70;63.90;;;;;;5048378;28;20032;-75
2022/09/13 08:48:59;;;;;;;2.65;0.70;;;19.70;63.70;;;;;;5046542;28;20059;-74
2022/09/13 08:51:47;;;;;;;2.83;1.25;;;19.80;63.70;;;;;;5040880;28;20376;-75
2022/09/13 08:54:16;;;;;;;2.83;0.80;;;19.90;63.30;;;;;;5030197;28;20116;-74
2022/09/13 08:57:08;;;;;;;6.75;1.98;;;20.00;63.40;;;;;;5045751;28;20095;-75
2022/09/13 08:59:50;;;;;;;7.35;0.90;;;20.10;63.20;;;;;;5049505;28;20028;-74
2022/09/13 09:02:57;;;;;;;20.70;4.85;;;20.20;63.20;;;;;;5049874;28;20075;-76
2022/09/13 09:05:27;;;;;;;15.20;5.32;;;20.30;63.00;;;;;;5051772;28;20035;-74
2022/09/13 09:08:18;;;;;;;13.25;3.80;;;20.40;63.10;;;;;;5036660;28;20048;-75
2022/09/13 09:10:50;;;;;;;8.05;2.45;;;20.40;62.80;;;;;;5046793;28;20073;-73
2022/09/13 09:13:27;;;;;;;11.38;3.05;;;20.50;62.70;;;;;;5042312;28;20033;-76
2022/09/13 09:16:25;;;;;;;7.55;1.85;;;20.60;62.50;;;;;;5047497;28;20032;-74
2022/09/13 09:18:54;;;;;;;8.07;1.65;;;20.70;62.40;;;;;;5045684;28;20033;-73
2022/09/13 09:21:20;;;;;;;9.07;2.03;;;20.80;62.50;;;;;;5044392;28;20394;-75
2022/09/13 09:23:54;;;;;;;7.75;1.75;;;20.90;62.40;;;;;;5044212;28;20029;-75
2022/09/13 09:26:28;;;;;;;7.90;2.40;;;21.00;62.20;;;;;;5045149;28;20040;-74
2022/09/13 09:29:09;;;;;;;8.02;2.03;;;21.10;62.10;;;;;;5046536;28;20041;-74
2022/09/13 09:31:45;;;;;;;7.53;1.83;;;21.10;61.80;;;;;;5046909;28;20451;-75
2022/09/13 09:34:21;;;;;;;5.38;1.48;;;21.20;61.90;;;;;;5045978;28;20043;-73
2022/09/13 09:37:05;;;;;;;6.32;1.55;;;21.30;61.70;;;;;;5033154;28;20044;-74
2022/09/13 09:39:32;;;;;;;5.22;1.48;;;21.40;61.50;;;;;;5043741;28;20400;-74
2022/09/13 09:41:59;;;;;;;6.57;2.53;;;21.50;61.60;;;;;;5038325;28;20021;-74
2022/09/13 09:44:32;;;;;;;6.10;1.75;;;21.60;61.60;;;;;;5023975;28;20037;-74
2022/09/13 09:47:10;;;;;;;4.70;1.45;;;21.60;61.40;;;;;;5040562;28;20041;-75
2022/09/13 09:52:28;;;;;;;4.32;1.42;;;21.80;61.30;;;;;;5042972;28;20499;-74
2022/09/13 09:54:58;;;;;;;;;;;21.90;61.20;;;;;;5047267;28;20033;-74
2022/09/13 09:57:49;;;;;;;5.40;1.17;;;21.90;61.20;;;;;;5044629;28;19908;-75
2022/09/13 10:00:18;;;;;;;3.22;1.17;;;21.90;61.00;;;;;;5047593;28;20033;-74
2022/09/13 10:02:47;;;;;;;3.85;1.55;;;21.90;61.10;;;;;;5048334;28;20037;-75
2022/09/13 10:05:19;;;;;;;4.13;1.10;;;21.90;61.10;;;;;;5040126;28;20036;-74
2022/09/13 10:08:27;;;;;;;3.85;1.30;;;21.80;60.80;;;;;;5056247;28;20037;-76
2022/09/13 10:10:56;;;;;;;1.83;1.02;;;21.70;60.40;;;;;;5027348;28;20105;-75
2022/09/13 10:13:23;;;;;;;3.45;1.02;;;21.60;60.60;;;;;;5055143;28;20124;-74
2022/09/13 10:16:02;;;;;;;3.80;1.23;;;21.60;60.60;;;;;;5073295;28;20093;-74
2022/09/13 10:18:32;;;;;;;2.47;1.13;;;21.50;60.40;;;;;;5040315;28;20028;-74
2022/09/13 10:21:16;;;;;;;3.15;0.80;;;21.40;60.30;;;;;;5045257;28;20029;-74
2022/09/13 10:23:43;;;;;;;5.65;1.63;;;21.30;60.10;;;;;;5049898;28;20044;-74
2022/09/13 10:26:25;;;;;;;3.33;1.30;;;21.30;60.30;;;;;;5012114;28;20029;-76
2022/09/13 10:29:22;;;;;;;4.27;1.87;;;21.20;60.10;;;;;;5046109;28;20052;-75
2022/09/13 10:31:52;;;;;;;6.47;1.52;;;21.20;60.00;;;;;;5032354;28;20270;-74
2022/09/13 10:34:24;;;;;;;4.38;0.90;;;21.20;60.20;;;;;;5047258;28;20036;-74
2022/09/13 10:37:16;;;;;;;2.45;1.15;;;21.10;60.00;;;;;;5040321;28;20033;-75
2022/09/13 10:39:59;;;;;;;4.28;1.40;;;21.10;59.90;;;;;;5042632;28;20037;-74
2022/09/13 10:42:27;;;;;;;2.63;1.02;;;21.10;59.90;;;;;;5046820;28;20033;-75
2022/09/13 10:44:56;;;;;;;6.25;1.38;;;21.10;60.00;;;;;;5046331;28;20033;-75
2022/09/13 10:47:26;;;;;;;3.42;1.20;;;21.10;60.00;;;;;;5042931;28;20052;-74
2022/09/13 10:49:54;;;;;;;3.42;1.63;;;21.10;60.00;;;;;;5030519;28;20126;-76
2022/09/13 10:52:30;;;;;;;5.85;1.50;;;21.10;60.10;;;;;;5044049;28;20035;-74
2022/09/13 10:55:18;;;;;;;3.10;1.33;;;21.10;60.00;;;;;;5044255;28;20033;-74
2022/09/13 10:58:07;;;;;;;4.80;1.52;;;21.00;59.90;;;;;;5051275;28;20108;-74
2022/09/13 11:00:51;;;;;;;7.40;1.92;;;21.00;60.10;;;;;;5046636;28;20029;-75
2022/09/13 11:04:02;;;;;;;2.88;1.35;;;21.00;60.30;;;;;;5047780;28;20374;-76
2022/09/13 11:06:41;;;;;;;3.22;1.23;;;21.00;60.40;;;;;;5047031;28;20051;-76
2022/09/13 11:09:10;;;;;;;2.78;1.13;;;21.00;60.50;;;;;;5050126;28;20067;-75
2022/09/13 11:11:57;;;;;;;2.95;1.10;;;21.00;60.50;;;;;;5033800;28;20024;-75
2022/09/13 11:14:51;;;;;;;5.57;1.77;;;21.00;60.50;;;;;;5060684;28;20247;-75
2022/09/13 11:17:53;;;;;;;2.58;1.13;;;21.00;60.60;;;;;;5057435;28;20064;-75
2022/09/13 11:20:56;;;;;;;3.33;1.23;;;20.90;60.50;;;;;;5070510;28;20097;-75
2022/09/13 11:23:47;;;;;;;6.75;2.67;;;20.80;60.50;;;;;;5050785;28;20104;-75
2022/09/13 11:26:51;;;;;;;4.07;1.55;;;20.80;60.70;;;;;;5058055;28;20037;-76
2022/09/13 11:29:35;;;;;;;3.97;1.77;;;20.70;60.70;;;;;;5052200;28;20036;-75
2022/09/13 11:32:35;;;;;;;13.07;1.70;;;20.70;60.90;;;;;;5050351;28;20041;-75
2022/09/13 11:35:25;;;;;;;2.72;1.15;;;20.60;61.00;;;;;;5045493;28;20032;-74
2022/09/13 11:38:07;;;;;;;3.55;1.40;;;20.60;61.00;;;;;;5049398;28;20406;-75
2022/09/13 11:40:57;;;;;;;5.30;1.70;;;20.60;61.10;;;;;;5043072;28;20029;-75
2022/09/13 11:43:51;;;;;;;5.10;1.83;;;20.50;61.10;;;;;;5051260;28;20099;-77
2022/09/13 11:46:20;;;;;;;6.32;1.20;;;20.50;61.10;;;;;;5052248;28;20461;-77
2022/09/13 11:49:14;;;;;;;4.95;1.45;;;20.50;61.10;;;;;;5047917;28;20094;-75
2022/09/13 11:52:08;;;;;;;10.02;2.55;;;20.60;61.40;;;;;;5051435;28;20170;-75
2022/09/13 11:55:01;;;;;;;4.38;1.23;;;20.70;61.60;;;;;;5049331;28;20029;-76
2022/09/13 11:57:35;;;;;;;5.97;1.45;;;20.70;61.50;;;;;;5050694;28;20478;-75
2022/09/13 12:00:29;;;;;;;3.25;1.15;;;20.70;61.50;;;;;;5052407;28;20047;-76
2022/09/13 12:03:05;;;;;;;3.90;1.23;;;20.70;61.50;;;;;;5049472;28;20047;-74
2022/09/13 12:05:56;;;;;;;6.30;1.80;;;20.80;61.60;;;;;;5047402;28;20063;-74
2022/09/13 12:08:33;;;;;;;2.50;1.45;;;20.80;61.60;;;;;;5049764;28;20458;-75
2022/09/13 12:11:10;;;;;;;2.72;1.30;;;20.90;61.70;;;;;;5048284;28;20046;-74
2022/09/13 12:13:42;;;;;;;3.03;1.48;;;20.90;62.30;;;;;;5046451;28;20448;-76
2022/09/13 12:16:13;;;;;;;2.75;1.33;;;20.80;61.60;;;;;;5045520;28;20033;-76
2022/09/13 12:18:47;;;;;;;4.75;1.30;;;20.80;61.60;;;;;;5048532;28;20032;-76
2022/09/13 12:21:18;;;;;;;4.28;1.58;;;20.90;61.80;;;;;;5048326;28;20029;-75
2022/09/13 12:24:11;;;;;;;4.47;1.85;;;20.80;61.70;;;;;;5013712;28;20033;-75
2022/09/13 12:26:37;;;;;;;4.25;1.30;;;20.90;61.90;;;;;;5061562;28;20028;-75
2022/09/13 12:29:27;;;;;;;3.63;2.00;;;20.90;61.90;;;;;;5050266;28;20033;-75
2022/09/13 12:31:59;;;;;;;4.38;1.60;;;20.90;61.90;;;;;;5033303;28;20036;-74
2022/09/13 12:34:34;;;;;;;3.25;1.25;;;20.90;61.90;;;;;;5047839;28;20149;-74
2022/09/13 12:37:19;;;;;;;5.55;1.20;;;20.90;61.90;;;;;;5047379;28;20079;-74
2022/09/13 12:39:59;;;;;;;2.70;1.42;;;21.00;62.00;;;;;;5045709;28;20465;-75
2022/09/13 12:43:07;;;;;;;3.38;1.42;;;21.00;61.90;;;;;;5045275;28;20033;-76
2022/09/13 12:46:01;;;;;;;4.03;1.10;;;21.00;61.90;;;;;;5029150;28;20044;-74
2022/09/13 12:48:49;;;;;;;5.45;1.63;;;21.10;62.00;;;;;;5048094;28;20049;-75
2022/09/13 12:51:27;;;;;;;2.20;0.93;;;21.20;62.10;;;;;;5047284;28;20433;-75
2022/09/13 12:54:35;;;;;;;2.55;1.42;;;21.20;62.10;;;;;;5047087;28;20059;-76
2022/09/13 12:57:07;;;;;;;4.07;1.20;;;21.20;62.10;;;;;;5046873;28;20483;-75
2022/09/13 12:59:52;;;;;;;3.28;1.40;;;21.30;62.10;;;;;;5046857;28;20037;-75
2022/09/13 13:02:39;;;;;;;3.72;1.67;;;21.40;62.30;;;;;;5044455;28;20037;-76
2022/09/13 13:05:29;;;;;;;2.63;1.17;;;21.40;62.20;;;;;;5045919;28;20029;-75
2022/09/13 13:08:19;;;;;;;4.63;1.52;;;21.50;62.30;;;;;;5047771;28;20418;-75
2022/09/13 13:11:30;;;;;;;3.58;1.50;;;21.60;62.40;;;;;;5027721;28;20044;-75
2022/09/13 13:13:57;;;;;;;4.20;2.08;;;21.60;62.40;;;;;;5045286;28;20048;-76
2022/09/13 13:16:28;;;;;;;3.72;1.60;;;21.70;62.40;;;;;;5049062;28;20519;-75
2022/09/13 13:19:16;;;;;;;5.45;1.73;;;21.80;62.50;;;;;;5050854;28;20044;-77
2022/09/13 13:21:42;;;;;;;2.88;1.38;;;21.90;62.60;;;;;;5041455;28;20045;-74
2022/09/13 13:24:20;;;;;;;4.20;1.95;;;22.00;62.70;;;;;;5048057;28;20027;-74
2022/09/13 13:26:55;;;;;;;2.83;1.85;;;22.00;62.60;;;;;;5046820;28;20043;-74
2022/09/13 13:29:31;;;;;;;4.25;2.38;;;22.10;62.70;;;;;;5051550;28;20519;-75